createdAt,value
2019-01-11T00:02:25.000Z,18.60
2019-01-11T00:04:54.608Z,36.93
2019-01-11T00:07:24.508Z,20.07
2019-01-11T00:09:54.064Z,32.67
2019-01-11T00:12:23.665Z,27.67
2019-01-11T00:14:53.452Z,36.40
2019-01-11T00:17:23.187Z,24.13
2019-01-11T00:19:52.795Z,46.23
2019-01-11T00:22:22.604Z,22.83
2019-01-11T00:24:52.316Z,25.03
2019-01-11T00:27:21.941Z,25.37
2019-01-11T00:29:51.635Z,23.77
2019-01-11T00:32:22.557Z,30.87
2019-01-11T00:34:52.410Z,23.33
2019-01-11T00:37:21.996Z,24.27
2019-01-11T00:39:51.490Z,21.97
2019-01-11T00:42:21.277Z,23.60
2019-01-11T00:44:51.020Z,26.23
2019-01-11T00:47:21.650Z,32.60
2019-01-11T00:49:51.374Z,24.80
2019-01-11T00:52:21.035Z,25.77
2019-01-11T00:54:50.720Z,24.43
2019-01-11T00:57:20.475Z,38.60
2019-01-11T00:59:50.008Z,27.97
2019-01-11T01:02:19.533Z,28.67
2019-01-11T01:04:49.316Z,23.03
2019-01-11T01:07:19.180Z,19.43
2019-01-11T01:09:48.788Z,21.13
2019-01-11T01:12:18.583Z,21.40
2019-01-11T01:14:48.302Z,23.43
2019-01-11T01:17:18.452Z,24.37
2019-01-11T01:19:48.666Z,22.80
2019-01-11T01:22:18.486Z,28.80
2019-01-11T01:24:48.010Z,29.97
2019-01-11T01:27:17.800Z,24.30
2019-01-11T01:29:47.297Z,21.77
2019-01-11T01:32:17.012Z,33.37
2019-01-11T01:34:46.863Z,24.23
2019-01-11T01:37:16.389Z,30.37
2019-01-11T01:39:45.964Z,31.83
2019-01-11T01:42:15.702Z,30.40
2019-01-11T01:44:45.178Z,31.07
2019-01-11T01:47:14.719Z,35.93
2019-01-11T01:49:44.613Z,30.33
2019-01-11T01:52:14.175Z,33.03
2019-01-11T01:54:45.016Z,29.67
2019-01-11T01:57:14.690Z,29.93
2019-01-11T01:59:44.238Z,33.80
2019-01-11T02:02:13.997Z,30.77
2019-01-11T02:04:43.496Z,38.90
2019-01-11T02:07:13.149Z,30.67
2019-01-11T02:09:43.102Z,30.97
2019-01-11T02:12:12.657Z,36.13
2019-01-11T02:14:42.656Z,32.60
2019-01-11T02:17:12.956Z,36.03
2019-01-11T02:19:42.645Z,31.73
2019-01-11T02:22:12.435Z,31.67
2019-01-11T02:24:42.148Z,31.90
2019-01-11T02:27:11.829Z,29.93
2019-01-11T02:29:41.319Z,36.47
2019-01-11T02:32:11.006Z,36.90
2019-01-11T02:34:40.533Z,33.77
2019-01-11T02:37:10.400Z,29.30
2019-01-11T02:39:40.280Z,33.30
2019-01-11T02:42:10.219Z,38.13
2019-01-11T02:44:40.000Z,32.77
2019-01-11T02:47:10.135Z,33.40
2019-01-11T02:49:40.491Z,34.20
2019-01-11T02:52:10.308Z,43.40
2019-01-11T02:54:40.882Z,37.50
2019-01-11T02:57:10.567Z,34.40
2019-01-11T02:59:40.216Z,34.20
2019-01-11T03:02:10.504Z,38.50
2019-01-11T03:04:40.291Z,38.63
2019-01-11T03:07:10.143Z,31.07
2019-01-11T03:09:39.979Z,35.27
2019-01-11T03:12:09.810Z,34.93
2019-01-11T03:14:39.426Z,37.67
2019-01-11T03:17:09.204Z,42.97
2019-01-11T03:19:39.038Z,34.90
2019-01-11T03:22:09.000Z,33.67
2019-01-11T03:24:38.943Z,34.17
2019-01-11T03:27:08.940Z,35.33
2019-01-11T03:29:38.674Z,38.23
2019-01-11T03:32:08.418Z,35.60
2019-01-11T03:34:46.049Z,38.73
2019-01-11T03:37:15.708Z,32.20
2019-01-11T03:39:45.218Z,32.00
2019-01-11T03:42:14.891Z,30.20
2019-01-11T03:44:44.701Z,28.57
2019-01-11T03:47:14.352Z,30.83
2019-01-11T03:49:43.974Z,28.03
2019-01-11T03:52:13.813Z,34.67
2019-01-11T03:54:43.472Z,36.90
2019-01-11T03:57:22.250Z,37.63
2019-01-11T03:59:51.946Z,39.13
2019-01-11T04:02:21.492Z,41.93
2019-01-11T04:04:51.354Z,32.27
2019-01-11T04:07:20.932Z,33.23
2019-01-11T04:09:50.598Z,34.03
2019-01-11T04:12:20.418Z,30.30
2019-01-11T04:14:49.970Z,37.30
2019-01-11T04:17:19.551Z,34.87
2019-01-11T04:19:49.206Z,33.57
2019-01-11T04:22:27.100Z,30.83
2019-01-11T04:25:21.897Z,38.47
2019-01-11T04:27:52.216Z,30.63
2019-01-11T04:30:23.066Z,35.33
2019-01-11T04:32:52.620Z,32.40
2019-01-11T04:35:22.207Z,38.27
2019-01-11T04:37:51.939Z,33.10
2019-01-11T04:40:21.521Z,38.77
2019-01-11T04:42:51.091Z,40.80
2019-01-11T04:45:20.839Z,34.10
2019-01-11T04:47:50.357Z,37.53
2019-01-11T04:50:20.391Z,43.03
2019-01-11T04:52:50.166Z,33.40
2019-01-11T04:55:19.761Z,35.90
2019-01-11T04:57:49.246Z,38.13
2019-01-11T05:00:23.400Z,31.03
2019-01-11T05:02:53.026Z,38.87
2019-01-11T05:05:22.711Z,36.43
2019-01-11T05:07:52.990Z,33.43
2019-01-11T05:10:22.757Z,38.87
2019-01-11T05:12:52.390Z,42.37
2019-01-11T05:15:22.253Z,46.10
2019-01-11T05:17:51.935Z,37.40
2019-01-11T05:20:21.520Z,37.13
2019-01-11T05:22:51.280Z,37.37
2019-01-11T05:25:20.853Z,39.00
2019-01-11T05:27:50.529Z,45.00
2019-01-11T05:30:21.267Z,45.27
2019-01-11T05:32:50.912Z,37.57
2019-01-11T05:35:20.486Z,37.53
2019-01-11T05:37:50.421Z,32.57
2019-01-11T05:40:20.618Z,36.47
2019-01-11T05:42:50.341Z,37.73
2019-01-11T05:45:20.125Z,43.43
2019-01-11T05:47:49.755Z,35.73
2019-01-11T05:50:24.360Z,40.87
2019-01-11T05:52:51.896Z,35.37
2019-01-11T05:55:49.543Z,35.10
2019-01-11T05:58:44.511Z,35.20
2019-01-11T06:01:15.103Z,37.93
2019-01-11T06:03:44.941Z,39.70
2019-01-11T06:06:14.654Z,27.80
2019-01-11T06:08:44.271Z,42.53
2019-01-11T06:11:14.040Z,32.23
2019-01-11T06:13:43.646Z,32.73
2019-01-11T06:16:13.255Z,33.67
2019-01-11T06:18:43.104Z,27.97
2019-01-11T06:21:12.728Z,29.47
2019-01-11T06:23:42.329Z,28.03
2019-01-11T06:26:12.053Z,33.27
2019-01-11T06:28:41.667Z,35.93
2019-01-11T06:31:11.325Z,26.13
2019-01-11T06:33:41.097Z,32.23
2019-01-11T06:36:10.655Z,29.57
2019-01-11T06:38:40.368Z,29.17
2019-01-11T06:41:10.602Z,32.93
2019-01-11T06:43:41.030Z,29.57
2019-01-11T06:46:10.606Z,36.33
2019-01-11T06:48:43.370Z,33.03
2019-01-11T06:51:13.364Z,34.87
2019-01-11T06:53:42.991Z,34.27
2019-01-11T06:56:13.011Z,31.53
2019-01-11T06:58:42.725Z,28.37
2019-01-11T07:01:12.217Z,37.10
2019-01-11T07:03:42.160Z,28.33
2019-01-11T07:06:11.909Z,32.50
2019-01-11T07:08:41.557Z,29.30
2019-01-11T07:11:11.357Z,32.33
2019-01-11T07:13:41.095Z,29.93
2019-01-11T07:16:10.644Z,36.93
2019-01-11T07:18:40.594Z,32.57
2019-01-11T07:21:10.323Z,49.97
2019-01-11T07:23:40.170Z,30.47
2019-01-11T07:26:10.614Z,29.13
2019-01-11T07:28:40.475Z,27.00
2019-01-11T07:31:18.711Z,28.40
2019-01-11T07:33:48.415Z,32.97
2019-01-11T07:36:37.397Z,34.03
2019-01-11T07:39:21.741Z,28.50
2019-01-11T07:41:51.549Z,25.23
2019-01-11T07:44:21.111Z,22.83
2019-01-11T07:46:50.621Z,24.57
2019-01-11T07:49:23.218Z,24.10
2019-01-11T07:51:51.716Z,27.17
2019-01-11T07:54:21.616Z,27.50
2019-01-11T07:56:53.034Z,24.43
2019-01-11T07:59:23.322Z,20.83
2019-01-11T08:01:52.997Z,26.97
2019-01-11T08:04:22.845Z,33.57
2019-01-11T08:06:52.980Z,29.77
2019-01-11T08:09:22.828Z,23.87
2019-01-11T08:11:52.679Z,20.87
2019-01-11T08:14:22.431Z,20.57
2019-01-11T08:16:52.008Z,22.33
2019-01-11T08:19:21.843Z,26.47
2019-01-11T08:21:51.626Z,28.70
2019-01-11T08:24:21.195Z,20.93
2019-01-11T08:26:51.159Z,24.47
2019-01-11T08:29:20.989Z,24.03
2019-01-11T08:31:50.669Z,22.70
2019-01-11T08:34:20.295Z,18.77
2019-01-11T08:36:50.069Z,26.43
2019-01-11T08:39:19.644Z,26.07
2019-01-11T08:41:49.108Z,26.00
2019-01-11T08:44:18.914Z,27.97
2019-01-11T08:46:48.549Z,19.60
2019-01-11T08:49:18.055Z,32.47
2019-01-11T08:51:47.931Z,21.63
2019-01-11T08:54:17.648Z,31.07
2019-01-11T08:56:47.370Z,22.20
2019-01-11T08:59:17.129Z,32.83
2019-01-11T09:01:46.711Z,36.53
2019-01-11T09:04:16.333Z,33.53
2019-01-11T09:06:46.126Z,28.63
2019-01-11T09:09:15.687Z,24.73
2019-01-11T09:11:45.359Z,29.63
2019-01-11T09:14:47.237Z,27.27
2019-01-11T09:17:18.947Z,28.13
2019-01-11T09:19:48.837Z,28.73
2019-01-11T09:22:18.467Z,23.13
2019-01-11T09:24:48.257Z,18.47
2019-01-11T09:27:18.084Z,22.47
2019-01-11T09:29:47.797Z,23.97
2019-01-11T09:32:17.407Z,20.63
2019-01-11T09:34:47.298Z,22.10
2019-01-11T09:37:16.826Z,30.30
2019-01-11T09:39:46.521Z,17.97
2019-01-11T09:42:16.200Z,24.93
2019-01-11T09:44:45.854Z,22.33
2019-01-11T09:47:15.362Z,16.77
2019-01-11T09:49:45.049Z,20.90
2019-01-11T09:52:14.658Z,20.87
2019-01-11T09:54:44.235Z,20.77
2019-01-11T09:57:13.920Z,28.57
2019-01-11T09:59:43.504Z,19.67
2019-01-11T10:02:32.196Z,23.97
2019-01-11T10:05:02.086Z,27.30
2019-01-11T10:07:31.788Z,22.40
2019-01-11T10:10:01.578Z,20.80
2019-01-11T10:12:31.167Z,18.23
2019-01-11T10:15:00.734Z,23.63
2019-01-11T10:17:30.559Z,21.53
2019-01-11T10:20:00.301Z,25.63
2019-01-11T10:22:29.935Z,19.23
2019-01-11T10:24:59.711Z,25.53
2019-01-11T10:27:29.394Z,21.83
2019-01-11T10:29:59.234Z,21.10
2019-01-11T10:32:28.972Z,22.97
2019-01-11T10:34:58.538Z,19.57
2019-01-11T10:37:28.338Z,16.40
2019-01-11T10:39:58.210Z,31.20
2019-01-11T10:42:27.790Z,22.17
2019-01-11T10:44:57.517Z,21.27
2019-01-11T10:47:27.397Z,29.93
2019-01-11T10:49:57.063Z,24.13
2019-01-11T10:52:26.707Z,24.60
2019-01-11T10:54:57.750Z,18.57
2019-01-11T10:57:27.396Z,22.30
2019-01-11T10:59:57.047Z,21.13
2019-01-11T11:02:27.052Z,25.63
2019-01-11T11:04:56.686Z,25.60
2019-01-11T11:07:26.341Z,21.00
2019-01-11T11:09:56.108Z,18.23
2019-01-11T11:12:25.763Z,18.90
2019-01-11T11:14:55.322Z,24.53
2019-01-11T11:17:25.117Z,20.80
2019-01-11T11:19:55.100Z,18.50
2019-01-11T11:22:24.839Z,18.40
2019-01-11T11:24:54.669Z,20.67
2019-01-11T11:27:24.263Z,19.83
2019-01-11T11:29:53.907Z,17.50
2019-01-11T11:32:32.983Z,14.33
2019-01-11T11:35:02.606Z,15.80
2019-01-11T11:37:32.210Z,15.90
2019-01-11T11:40:02.206Z,10.43
2019-01-11T11:42:31.918Z,11.13
2019-01-11T11:45:01.588Z,15.33
2019-01-11T11:47:31.464Z,12.30
2019-01-11T11:50:01.163Z,18.67
2019-01-11T11:52:30.716Z,18.03
2019-01-11T11:55:00.490Z,16.43
2019-01-11T11:57:30.176Z,15.27
2019-01-11T12:00:00.021Z,14.00
2019-01-11T12:02:29.764Z,15.43
2019-01-11T12:04:59.492Z,13.83
2019-01-11T12:07:29.247Z,11.03
2019-01-11T12:09:58.979Z,13.47
2019-01-11T12:12:28.600Z,17.07
2019-01-11T12:14:58.185Z,14.97
2019-01-11T12:17:28.080Z,17.20
2019-01-11T12:19:57.650Z,16.37
2019-01-11T12:22:27.380Z,14.73
2019-01-11T12:24:57.158Z,18.97
2019-01-11T12:27:26.815Z,11.97
2019-01-11T12:29:56.472Z,17.03
2019-01-11T12:32:26.200Z,15.97
2019-01-11T12:34:55.801Z,17.90
2019-01-11T12:37:25.398Z,14.53
2019-01-11T12:39:55.429Z,11.30
2019-01-11T12:42:25.043Z,16.40
2019-01-11T12:44:54.799Z,10.77
2019-01-11T12:47:24.616Z,12.43
2019-01-11T12:49:54.177Z,12.50
2019-01-11T12:52:23.838Z,12.63
2019-01-11T12:54:53.635Z,16.17
2019-01-11T12:57:23.259Z,12.43
2019-01-11T12:59:52.809Z,13.73
2019-01-11T13:02:22.492Z,8.37
2019-01-11T13:04:52.225Z,13.83
2019-01-11T13:07:21.753Z,8.87
2019-01-11T13:09:51.459Z,13.50
2019-01-11T13:12:21.221Z,7.90
2019-01-11T13:14:50.854Z,12.30
2019-01-11T13:17:20.800Z,11.23
2019-01-11T13:19:50.442Z,9.53
2019-01-11T13:22:20.246Z,13.47
2019-01-11T13:24:50.180Z,10.80
2019-01-11T13:27:19.873Z,12.27
2019-01-11T13:29:49.455Z,13.70
2019-01-11T13:32:19.253Z,10.90
2019-01-11T13:34:48.920Z,10.90
2019-01-11T13:37:18.610Z,6.37
2019-01-11T13:39:48.527Z,7.20
2019-01-11T13:42:18.537Z,7.83
2019-01-11T13:44:48.202Z,5.13
2019-01-11T13:47:18.138Z,7.93
2019-01-11T13:49:47.735Z,7.83
2019-01-11T13:52:17.395Z,5.43
2019-01-11T13:54:49.949Z,8.87
2019-01-11T13:57:19.579Z,5.57
2019-01-11T13:59:49.119Z,7.10
2019-01-11T14:02:18.989Z,7.67
2019-01-11T14:04:48.628Z,4.90
2019-01-11T14:07:18.211Z,5.43
2019-01-11T14:09:48.090Z,3.97
2019-01-11T14:12:17.753Z,5.40
2019-01-11T14:14:47.498Z,4.80
2019-01-11T14:17:17.254Z,5.83
2019-01-11T14:19:47.282Z,5.47
2019-01-11T14:22:16.920Z,3.73
2019-01-11T14:24:46.726Z,7.27
2019-01-11T14:27:16.298Z,4.43
2019-01-11T14:29:46.027Z,5.13
2019-01-11T14:32:16.138Z,5.90
2019-01-11T14:34:45.766Z,5.10
2019-01-11T14:37:15.354Z,7.13
2019-01-11T14:39:45.025Z,5.90
2019-01-11T14:42:14.661Z,4.77
2019-01-11T14:44:44.424Z,5.47
2019-01-11T14:47:14.141Z,3.87
2019-01-11T14:49:43.677Z,6.67
2019-01-11T14:52:20.143Z,4.40
2019-01-11T14:54:45.063Z,3.40
2019-01-11T14:57:14.975Z,7.87
2019-01-11T14:59:44.465Z,5.93
2019-01-11T15:02:14.269Z,7.30
2019-01-11T15:04:44.049Z,6.93
2019-01-11T15:07:13.715Z,8.20
2019-01-11T15:09:43.445Z,5.43
2019-01-11T15:12:13.153Z,6.30
2019-01-11T15:14:42.801Z,4.33
2019-01-11T15:17:12.700Z,8.90
2019-01-11T15:19:42.536Z,9.83
2019-01-11T15:22:12.136Z,7.87
2019-01-11T15:24:41.960Z,9.20
2019-01-11T15:27:11.507Z,10.23
2019-01-11T15:29:41.245Z,10.60
2019-01-11T15:32:10.982Z,9.00
2019-01-11T15:34:40.835Z,15.17
2019-01-11T15:37:10.487Z,12.73
2019-01-11T15:39:40.420Z,9.57
2019-01-11T15:42:10.082Z,12.40
2019-01-11T15:44:40.054Z,12.83
2019-01-11T15:47:10.293Z,13.97
2019-01-11T15:49:40.112Z,8.67
2019-01-11T15:52:09.886Z,8.27
2019-01-11T15:54:39.788Z,9.90
2019-01-11T15:57:09.529Z,7.00
2019-01-11T16:00:04.461Z,9.63
2019-01-11T16:02:34.197Z,9.83
2019-01-11T16:05:03.834Z,11.33
2019-01-11T16:07:33.995Z,11.03
2019-01-11T16:10:09.657Z,12.83
2019-01-11T16:12:59.187Z,12.67
2019-01-11T16:16:27.568Z,9.20
2019-01-11T16:18:58.571Z,11.60
2019-01-11T16:21:28.275Z,9.40
2019-01-11T16:23:58.005Z,10.13
2019-01-11T16:26:27.703Z,8.23
2019-01-11T16:28:57.390Z,5.93
2019-01-11T16:31:27.139Z,7.50
2019-01-11T16:33:56.843Z,7.30
2019-01-11T16:36:26.631Z,8.07
2019-01-11T16:38:56.273Z,7.50
2019-01-11T16:41:26.275Z,10.13
2019-01-11T16:43:55.985Z,10.00
2019-01-11T16:46:25.625Z,10.87
2019-01-11T16:48:55.399Z,9.13
2019-01-11T16:51:25.198Z,12.23
2019-01-11T16:53:54.819Z,15.73
2019-01-11T16:56:24.530Z,12.17
2019-01-11T16:58:54.155Z,8.77
2019-01-11T17:01:24.018Z,15.70
2019-01-11T17:03:54.701Z,11.30
2019-01-11T17:06:24.667Z,18.67
2019-01-11T17:08:54.236Z,14.63
2019-01-11T17:11:24.151Z,14.27
2019-01-11T17:13:53.841Z,14.40
2019-01-11T17:16:23.597Z,12.87
2019-01-11T17:18:53.624Z,8.93
2019-01-11T17:21:23.536Z,9.33
2019-01-11T17:23:53.149Z,14.70
2019-01-11T17:26:23.137Z,14.83
2019-01-11T17:28:52.745Z,10.63
2019-01-11T17:31:22.402Z,8.33
2019-01-11T17:33:52.081Z,10.23
2019-01-11T17:36:21.648Z,8.63
2019-01-11T17:38:51.284Z,11.33
2019-01-11T17:41:21.050Z,12.30
2019-01-11T17:43:50.676Z,13.10
2019-01-11T17:46:20.223Z,17.20
2019-01-11T17:48:50.013Z,18.63
2019-01-11T17:51:19.738Z,10.13
2019-01-11T17:53:49.293Z,12.80
2019-01-11T17:56:18.966Z,8.77
2019-01-11T17:58:48.593Z,8.67
2019-01-11T18:01:18.268Z,10.80
2019-01-11T18:03:48.044Z,11.80
2019-01-11T18:06:17.574Z,9.23
2019-01-11T18:08:47.151Z,9.90
2019-01-11T18:11:17.074Z,14.87
2019-01-11T18:13:46.730Z,14.17
2019-01-11T18:16:16.464Z,13.03
2019-01-11T18:18:46.135Z,16.80
2019-01-11T18:21:15.780Z,15.53
2019-01-11T18:23:45.524Z,20.03
2019-01-11T18:26:15.650Z,15.47
2019-01-11T18:28:45.200Z,11.83
2019-01-11T18:31:15.656Z,12.30
2019-01-11T18:33:45.525Z,14.10
2019-01-11T18:36:15.207Z,16.53
2019-01-11T18:38:44.767Z,13.63
2019-01-11T18:41:14.560Z,18.07
2019-01-11T18:43:44.384Z,10.27
2019-01-11T18:46:14.092Z,8.93
2019-01-11T18:48:44.017Z,15.53
2019-01-11T18:51:13.602Z,12.70
2019-01-11T18:53:43.101Z,12.63
2019-01-11T18:56:13.024Z,15.47
2019-01-11T18:58:42.681Z,17.53
2019-01-11T19:01:12.353Z,13.10
2019-01-11T19:03:42.111Z,15.97
2019-01-11T19:06:13.827Z,15.90
2019-01-11T19:08:43.803Z,16.37
2019-01-11T19:11:13.586Z,14.27
2019-01-11T19:13:43.164Z,12.37
2019-01-11T19:16:12.993Z,11.60
2019-01-11T19:18:42.812Z,12.03
2019-01-11T19:21:14.080Z,7.57
2019-01-11T19:23:43.733Z,8.47
2019-01-11T19:26:13.438Z,10.73
2019-01-11T19:28:43.415Z,13.57
2019-01-11T19:31:13.114Z,10.83
2019-01-11T19:33:43.147Z,11.33
2019-01-11T19:36:12.998Z,15.93
2019-01-11T19:38:42.734Z,14.03
2019-01-11T19:41:12.388Z,17.70
2019-01-11T19:43:42.681Z,15.87
2019-01-11T19:46:12.392Z,13.13
2019-01-11T19:48:42.483Z,13.83
2019-01-11T19:51:12.388Z,13.13
2019-01-11T19:53:42.013Z,13.27
2019-01-11T19:56:11.665Z,11.83
2019-01-11T19:58:41.995Z,15.50
2019-01-11T20:01:12.213Z,20.43
2019-01-11T20:03:42.203Z,12.90
2019-01-11T20:06:12.117Z,14.93
2019-01-11T20:08:42.122Z,18.67
2019-01-11T20:11:11.999Z,20.47
2019-01-11T20:13:41.925Z,17.20
2019-01-11T20:16:11.592Z,18.03
2019-01-11T20:18:41.431Z,16.77
2019-01-11T20:21:11.486Z,19.73
2019-01-11T20:23:42.396Z,24.00
2019-01-11T20:26:12.288Z,25.40
2019-01-11T20:28:42.140Z,23.60
2019-01-11T20:31:11.684Z,11.43
2019-01-11T20:33:41.707Z,15.03
2019-01-11T20:36:11.601Z,13.27
2019-01-11T20:38:41.403Z,13.27
2019-01-11T20:41:11.490Z,11.60
2019-01-11T20:43:41.215Z,8.30
2019-01-11T20:46:11.555Z,13.33
2019-01-11T20:48:41.919Z,11.37
2019-01-11T20:51:11.787Z,16.37
2019-01-11T20:53:42.044Z,18.13
2019-01-11T20:56:11.974Z,20.20
2019-01-11T20:58:41.589Z,24.73
2019-01-11T21:01:12.313Z,22.27
2019-01-11T21:03:42.554Z,20.47
2019-01-11T21:06:12.135Z,21.90
2019-01-11T21:08:41.875Z,21.10
2019-01-11T21:11:11.743Z,18.50
2019-01-11T21:13:41.609Z,15.03
2019-01-11T21:16:12.023Z,16.03
2019-01-11T21:18:41.769Z,11.83
2019-01-11T21:21:11.650Z,13.67
2019-01-11T21:23:48.415Z,11.90
2019-01-11T21:26:13.002Z,10.53
2019-01-11T21:28:42.871Z,16.27
2019-01-11T21:31:12.747Z,10.43
2019-01-11T21:33:42.317Z,11.00
2019-01-11T21:36:12.268Z,11.93
2019-01-11T21:38:42.124Z,10.33
2019-01-11T21:41:11.685Z,10.00
2019-01-11T21:43:41.723Z,11.60
2019-01-11T21:46:11.425Z,10.40
2019-01-11T21:48:41.423Z,10.83
2019-01-11T21:51:11.562Z,9.57
2019-01-11T21:53:41.367Z,10.80
2019-01-11T21:56:11.157Z,9.17
2019-01-11T21:58:41.270Z,10.27
2019-01-11T22:01:10.986Z,9.90
2019-01-11T22:03:40.624Z,12.85
2019-01-11T22:06:10.688Z,13.07
2019-01-11T22:08:41.854Z,15.60
2019-01-11T22:11:11.597Z,18.00
2019-01-11T22:13:41.462Z,19.42
2019-01-11T22:16:11.248Z,18.40
2019-01-11T22:18:41.250Z,15.77
2019-01-11T22:21:11.093Z,23.33
2019-01-11T22:23:40.849Z,17.40
2019-01-11T22:26:10.566Z,21.23
2019-01-11T22:28:40.387Z,18.60
2019-01-11T22:31:10.238Z,17.63
2019-01-11T22:33:40.134Z,17.93
2019-01-11T22:36:09.900Z,19.73
2019-01-11T22:38:39.744Z,20.83
2019-01-11T22:41:09.587Z,20.23
2019-01-11T22:43:39.222Z,18.53
2019-01-11T22:46:08.958Z,12.43
2019-01-11T22:48:38.710Z,11.30
2019-01-11T22:51:08.456Z,13.47
2019-01-11T22:53:38.132Z,16.30
2019-01-11T22:56:08.081Z,18.30
2019-01-11T22:58:37.969Z,19.67
2019-01-11T23:01:54.582Z,19.17
2019-01-11T23:04:24.232Z,18.73
2019-01-11T23:07:20.636Z,20.83
2019-01-11T23:09:56.970Z,18.10
2019-01-11T23:13:02.135Z,17.77
2019-01-11T23:15:34.752Z,16.57
2019-01-11T23:18:24.663Z,18.87
2019-01-11T23:20:57.089Z,18.33
2019-01-11T23:23:26.806Z,17.60
2019-01-11T23:25:56.469Z,15.80
2019-01-11T23:28:26.135Z,12.50
2019-01-11T23:30:56.006Z,10.93
2019-01-11T23:33:25.577Z,12.17
2019-01-11T23:35:55.282Z,11.90
2019-01-11T23:38:25.129Z,10.17
2019-01-11T23:40:54.891Z,11.83
2019-01-11T23:43:24.499Z,14.03
2019-01-11T23:45:54.318Z,14.87
2019-01-11T23:48:23.856Z,16.37
2019-01-11T23:50:53.457Z,14.95
2019-01-11T23:53:23.319Z,20.60
2019-01-11T23:55:53.101Z,17.17
2019-01-11T23:58:22.763Z,14.63
